sensor_id;sensor_type;location;lat;lon;timestamp;P1;durP1;ratioP1;P2;durP2;ratioP2
67841;SDS011;54642;59.126;37.876;2022-10-31T00:03:55;13.55;;;6.00;;
67841;SDS011;54642;59.126;37.876;2022-10-31T00:08:51;12.00;;;5.43;;
67841;SDS011;54642;59.126;37.876;2022-10-31T00:11:19;17.98;;;7.60;;
67841;SDS011;54642;59.126;37.876;2022-10-31T00:13:45;20.73;;;7.30;;
67841;SDS011;54642;59.126;37.876;2022-10-31T00:16:15;22.63;;;10.23;;
67841;SDS011;54642;59.126;37.876;2022-10-31T00:18:42;40.58;;;18.45;;
67841;SDS011;54642;59.126;37.876;2022-10-31T00:23:33;31.45;;;13.48;;
67841;SDS011;54642;59.126;37.876;2022-10-31T00:28:26;65.82;;;21.48;;
67841;SDS011;54642;59.126;37.876;2022-10-31T00:33:17;85.03;;;30.30;;
67841;SDS011;54642;59.126;37.876;2022-10-31T00:35:48;117.88;;;36.10;;
67841;SDS011;54642;59.126;37.876;2022-10-31T00:38:16;94.63;;;29.90;;
67841;SDS011;54642;59.126;37.876;2022-10-31T00:43:07;81.03;;;26.63;;
67841;SDS011;54642;59.126;37.876;2022-10-31T00:45:34;90.90;;;32.03;;
67841;SDS011;54642;59.126;37.876;2022-10-31T00:50:26;58.45;;;20.52;;
67841;SDS011;54642;59.126;37.876;2022-10-31T00:52:53;48.08;;;16.88;;
67841;SDS011;54642;59.126;37.876;2022-10-31T00:57:47;47.90;;;12.93;;
67841;SDS011;54642;59.126;37.876;2022-10-31T01:00:13;53.42;;;12.85;;
67841;SDS011;54642;59.126;37.876;2022-10-31T01:02:41;32.80;;;9.43;;
67841;SDS011;54642;59.126;37.876;2022-10-31T01:05:07;28.25;;;9.63;;
67841;SDS011;54642;59.126;37.876;2022-10-31T01:07:39;35.17;;;8.40;;
67841;SDS011;54642;59.126;37.876;2022-10-31T01:10:08;9.05;;;3.40;;
67841;SDS011;54642;59.126;37.876;2022-10-31T01:12:36;10.77;;;3.58;;
67841;SDS011;54642;59.126;37.876;2022-10-31T01:15:06;5.03;;;2.30;;
67841;SDS011;54642;59.126;37.876;2022-10-31T01:17:33;13.18;;;4.32;;
67841;SDS011;54642;59.126;37.876;2022-10-31T01:20:00;20.65;;;7.38;;
67841;SDS011;54642;59.126;37.876;2022-10-31T01:22:26;23.80;;;8.27;;
67841;SDS011;54642;59.126;37.876;2022-10-31T01:27:18;21.80;;;8.18;;
67841;SDS011;54642;59.126;37.876;2022-10-31T01:29:45;39.25;;;13.13;;
67841;SDS011;54642;59.126;37.876;2022-10-31T01:32:11;38.00;;;14.75;;
67841;SDS011;54642;59.126;37.876;2022-10-31T01:37:02;86.85;;;23.55;;
67841;SDS011;54642;59.126;37.876;2022-10-31T01:39:28;78.78;;;18.40;;
67841;SDS011;54642;59.126;37.876;2022-10-31T01:41:54;41.03;;;11.38;;
67841;SDS011;54642;59.126;37.876;2022-10-31T01:46:48;9.90;;;4.65;;
67841;SDS011;54642;59.126;37.876;2022-10-31T01:49:28;8.82;;;4.18;;
67841;SDS011;54642;59.126;37.876;2022-10-31T01:54:33;19.05;;;7.13;;
67841;SDS011;54642;59.126;37.876;2022-10-31T01:57:05;53.40;;;13.68;;
67841;SDS011;54642;59.126;37.876;2022-10-31T01:59:34;59.45;;;13.93;;
67841;SDS011;54642;59.126;37.876;2022-10-31T02:02:05;15.40;;;6.45;;
67841;SDS011;54642;59.126;37.876;2022-10-31T02:04:32;12.40;;;3.78;;
67841;SDS011;54642;59.126;37.876;2022-10-31T02:07:02;13.75;;;5.88;;
67841;SDS011;54642;59.126;37.876;2022-10-31T02:09:32;3.90;;;1.40;;
67841;SDS011;54642;59.126;37.876;2022-10-31T02:12:00;3.50;;;1.52;;
67841;SDS011;54642;59.126;37.876;2022-10-31T02:14:28;1.38;;;0.95;;
67841;SDS011;54642;59.126;37.876;2022-10-31T02:16:56;1.95;;;0.95;;
67841;SDS011;54642;59.126;37.876;2022-10-31T02:30:50;2.35;;;1.50;;
67841;SDS011;54642;59.126;37.876;2022-10-31T02:33:40;4.03;;;1.60;;
67841;SDS011;54642;59.126;37.876;2022-10-31T02:36:15;2.60;;;1.90;;
67841;SDS011;54642;59.126;37.876;2022-10-31T02:47:03;2.28;;;1.35;;
67841;SDS011;54642;59.126;37.876;2022-10-31T02:49:42;3.05;;;1.48;;
67841;SDS011;54642;59.126;37.876;2022-10-31T02:54:57;6.30;;;2.67;;
67841;SDS011;54642;59.126;37.876;2022-10-31T02:57:30;7.97;;;3.20;;
67841;SDS011;54642;59.126;37.876;2022-10-31T03:00:07;8.73;;;3.78;;
67841;SDS011;54642;59.126;37.876;2022-10-31T03:07:56;9.68;;;3.33;;
67841;SDS011;54642;59.126;37.876;2022-10-31T03:13:10;2.67;;;1.52;;
67841;SDS011;54642;59.126;37.876;2022-10-31T03:16:22;2.70;;;1.38;;
67841;SDS011;54642;59.126;37.876;2022-10-31T03:18:59;4.25;;;1.73;;
67841;SDS011;54642;59.126;37.876;2022-10-31T03:21:36;4.30;;;1.85;;
67841;SDS011;54642;59.126;37.876;2022-10-31T03:24:12;3.03;;;1.33;;
67841;SDS011;54642;59.126;37.876;2022-10-31T03:26:44;18.45;;;6.97;;
67841;SDS011;54642;59.126;37.876;2022-10-31T03:29:15;11.63;;;4.40;;
67841;SDS011;54642;59.126;37.876;2022-10-31T03:34:35;26.42;;;8.05;;
67841;SDS011;54642;59.126;37.876;2022-10-31T03:37:04;9.50;;;4.55;;
67841;SDS011;54642;59.126;37.876;2022-10-31T03:39:33;6.35;;;3.08;;
67841;SDS011;54642;59.126;37.876;2022-10-31T03:42:06;3.08;;;2.17;;
67841;SDS011;54642;59.126;37.876;2022-10-31T03:44:36;3.65;;;2.00;;
67841;SDS011;54642;59.126;37.876;2022-10-31T03:47:06;3.65;;;2.35;;
67841;SDS011;54642;59.126;37.876;2022-10-31T03:49:32;5.80;;;2.63;;
67841;SDS011;54642;59.126;37.876;2022-10-31T03:52:19;7.53;;;3.22;;
67841;SDS011;54642;59.126;37.876;2022-10-31T03:54:58;13.85;;;6.30;;
67841;SDS011;54642;59.126;37.876;2022-10-31T03:57:38;19.88;;;7.90;;
67841;SDS011;54642;59.126;37.876;2022-10-31T04:00:10;30.65;;;11.52;;
67841;SDS011;54642;59.126;37.876;2022-10-31T04:02:53;29.58;;;12.13;;
67841;SDS011;54642;59.126;37.876;2022-10-31T04:05:28;35.65;;;13.13;;
67841;SDS011;54642;59.126;37.876;2022-10-31T04:07:59;30.02;;;12.23;;
67841;SDS011;54642;59.126;37.876;2022-10-31T04:10:30;31.70;;;13.23;;
67841;SDS011;54642;59.126;37.876;2022-10-31T04:13:02;16.48;;;7.70;;
67841;SDS011;54642;59.126;37.876;2022-10-31T04:15:39;48.17;;;13.77;;
67841;SDS011;54642;59.126;37.876;2022-10-31T04:18:06;72.15;;;23.27;;
67841;SDS011;54642;59.126;37.876;2022-10-31T04:20:33;48.83;;;18.95;;
67841;SDS011;54642;59.126;37.876;2022-10-31T04:23:01;10.27;;;4.90;;
67841;SDS011;54642;59.126;37.876;2022-10-31T04:25:30;15.75;;;5.93;;
67841;SDS011;54642;59.126;37.876;2022-10-31T04:27:57;37.45;;;8.88;;
67841;SDS011;54642;59.126;37.876;2022-10-31T04:30:23;15.00;;;5.88;;
67841;SDS011;54642;59.126;37.876;2022-10-31T04:32:49;13.60;;;4.53;;
67841;SDS011;54642;59.126;37.876;2022-10-31T04:35:15;7.38;;;3.83;;
67841;SDS011;54642;59.126;37.876;2022-10-31T04:37:41;13.18;;;4.03;;
67841;SDS011;54642;59.126;37.876;2022-10-31T04:40:07;11.82;;;3.95;;
67841;SDS011;54642;59.126;37.876;2022-10-31T04:42:54;12.13;;;4.53;;
67841;SDS011;54642;59.126;37.876;2022-10-31T04:45:20;33.58;;;10.65;;
67841;SDS011;54642;59.126;37.876;2022-10-31T04:47:48;23.83;;;9.38;;
67841;SDS011;54642;59.126;37.876;2022-10-31T04:50:14;9.95;;;5.45;;
67841;SDS011;54642;59.126;37.876;2022-10-31T04:52:42;2.80;;;0.98;;
67841;SDS011;54642;59.126;37.876;2022-10-31T04:55:11;2.72;;;1.48;;
67841;SDS011;54642;59.126;37.876;2022-10-31T04:57:57;6.68;;;1.70;;
67841;SDS011;54642;59.126;37.876;2022-10-31T05:00:24;1.40;;;1.13;;
67841;SDS011;54642;59.126;37.876;2022-10-31T05:02:51;4.13;;;1.45;;
67841;SDS011;54642;59.126;37.876;2022-10-31T05:05:20;11.90;;;3.42;;
67841;SDS011;54642;59.126;37.876;2022-10-31T05:07:48;7.55;;;1.80;;
67841;SDS011;54642;59.126;37.876;2022-10-31T05:10:17;3.83;;;1.73;;
67841;SDS011;54642;59.126;37.876;2022-10-31T05:12:48;2.47;;;1.40;;
67841;SDS011;54642;59.126;37.876;2022-10-31T05:15:41;2.47;;;1.33;;
67841;SDS011;54642;59.126;37.876;2022-10-31T05:18:26;11.85;;;4.20;;
67841;SDS011;54642;59.126;37.876;2022-10-31T05:21:10;15.70;;;6.40;;
67841;SDS011;54642;59.126;37.876;2022-10-31T05:23:41;30.10;;;7.15;;
67841;SDS011;54642;59.126;37.876;2022-10-31T05:26:07;27.85;;;8.38;;
67841;SDS011;54642;59.126;37.876;2022-10-31T05:28:33;26.70;;;6.70;;
67841;SDS011;54642;59.126;37.876;2022-10-31T05:31:00;28.80;;;9.02;;
67841;SDS011;54642;59.126;37.876;2022-10-31T05:33:26;31.20;;;8.45;;
67841;SDS011;54642;59.126;37.876;2022-10-31T05:36:15;35.83;;;9.02;;
67841;SDS011;54642;59.126;37.876;2022-10-31T05:38:50;36.15;;;10.88;;
67841;SDS011;54642;59.126;37.876;2022-10-31T05:41:24;39.28;;;14.30;;
67841;SDS011;54642;59.126;37.876;2022-10-31T05:43:58;31.90;;;11.63;;
67841;SDS011;54642;59.126;37.876;2022-10-31T05:46:27;30.60;;;11.43;;
67841;SDS011;54642;59.126;37.876;2022-10-31T05:49:12;43.90;;;13.43;;
67841;SDS011;54642;59.126;37.876;2022-10-31T05:51:56;24.63;;;9.35;;
67841;SDS011;54642;59.126;37.876;2022-10-31T05:54:30;49.47;;;17.42;;
67841;SDS011;54642;59.126;37.876;2022-10-31T05:56:57;70.00;;;21.00;;
67841;SDS011;54642;59.126;37.876;2022-10-31T05:59:23;44.92;;;16.20;;
67841;SDS011;54642;59.126;37.876;2022-10-31T06:04:29;24.95;;;9.60;;
67841;SDS011;54642;59.126;37.876;2022-10-31T06:09:21;54.40;;;19.13;;
67841;SDS011;54642;59.126;37.876;2022-10-31T06:11:47;55.65;;;20.50;;
67841;SDS011;54642;59.126;37.876;2022-10-31T06:14:25;54.60;;;21.55;;
67841;SDS011;54642;59.126;37.876;2022-10-31T06:16:54;59.25;;;23.85;;
67841;SDS011;54642;59.126;37.876;2022-10-31T06:19:39;40.42;;;12.80;;
67841;SDS011;54642;59.126;37.876;2022-10-31T06:22:06;41.10;;;13.18;;
67841;SDS011;54642;59.126;37.876;2022-10-31T06:24:32;21.73;;;9.45;;
67841;SDS011;54642;59.126;37.876;2022-10-31T06:27:27;64.00;;;35.70;;
67841;SDS011;54642;59.126;37.876;2022-10-31T06:29:54;90.75;;;40.80;;
67841;SDS011;54642;59.126;37.876;2022-10-31T06:32:29;65.07;;;29.33;;
67841;SDS011;54642;59.126;37.876;2022-10-31T06:34:55;62.92;;;27.52;;
67841;SDS011;54642;59.126;37.876;2022-10-31T06:37:22;111.50;;;40.47;;
67841;SDS011;54642;59.126;37.876;2022-10-31T06:39:49;95.47;;;39.05;;
67841;SDS011;54642;59.126;37.876;2022-10-31T06:42:15;102.13;;;41.35;;
67841;SDS011;54642;59.126;37.876;2022-10-31T06:44:42;139.70;;;61.60;;
67841;SDS011;54642;59.126;37.876;2022-10-31T06:47:27;134.15;;;63.50;;
67841;SDS011;54642;59.126;37.876;2022-10-31T06:50:07;114.50;;;52.40;;
67841;SDS011;54642;59.126;37.876;2022-10-31T06:52:34;86.25;;;36.72;;
67841;SDS011;54642;59.126;37.876;2022-10-31T06:55:01;102.82;;;45.22;;
67841;SDS011;54642;59.126;37.876;2022-10-31T06:57:28;119.90;;;53.53;;
67841;SDS011;54642;59.126;37.876;2022-10-31T06:59:54;104.25;;;44.78;;
67841;SDS011;54642;59.126;37.876;2022-10-31T07:02:41;132.38;;;67.55;;
67841;SDS011;54642;59.126;37.876;2022-10-31T07:05:07;119.35;;;54.47;;
67841;SDS011;54642;59.126;37.876;2022-10-31T07:07:33;96.63;;;39.03;;
67841;SDS011;54642;59.126;37.876;2022-10-31T07:09:59;108.47;;;53.45;;
67841;SDS011;54642;59.126;37.876;2022-10-31T07:12:44;135.43;;;61.40;;
67841;SDS011;54642;59.126;37.876;2022-10-31T07:15:10;117.30;;;55.30;;
67841;SDS011;54642;59.126;37.876;2022-10-31T07:17:36;116.30;;;54.67;;
67841;SDS011;54642;59.126;37.876;2022-10-31T07:20:02;117.72;;;46.95;;
67841;SDS011;54642;59.126;37.876;2022-10-31T07:22:35;153.27;;;73.53;;
67841;SDS011;54642;59.126;37.876;2022-10-31T07:25:04;120.75;;;55.50;;
67841;SDS011;54642;59.126;37.876;2022-10-31T07:27:49;73.70;;;29.15;;
67841;SDS011;54642;59.126;37.876;2022-10-31T07:30:16;72.95;;;30.63;;
67841;SDS011;54642;59.126;37.876;2022-10-31T07:32:44;155.70;;;71.97;;
67841;SDS011;54642;59.126;37.876;2022-10-31T07:35:14;92.28;;;40.55;;
67841;SDS011;54642;59.126;37.876;2022-10-31T07:37:46;84.57;;;36.90;;
67841;SDS011;54642;59.126;37.876;2022-10-31T07:40:14;115.85;;;52.10;;
67841;SDS011;54642;59.126;37.876;2022-10-31T07:42:42;145.48;;;69.25;;
67841;SDS011;54642;59.126;37.876;2022-10-31T07:45:28;100.55;;;47.17;;
67841;SDS011;54642;59.126;37.876;2022-10-31T07:48:20;117.15;;;60.33;;
67841;SDS011;54642;59.126;37.876;2022-10-31T07:51:06;124.30;;;55.65;;
67841;SDS011;54642;59.126;37.876;2022-10-31T07:53:52;154.85;;;70.65;;
67841;SDS011;54642;59.126;37.876;2022-10-31T07:56:23;153.32;;;71.63;;
67841;SDS011;54642;59.126;37.876;2022-10-31T07:58:50;116.70;;;55.03;;
67841;SDS011;54642;59.126;37.876;2022-10-31T08:01:17;117.28;;;58.13;;
67841;SDS011;54642;59.126;37.876;2022-10-31T08:03:54;127.53;;;58.03;;
67841;SDS011;54642;59.126;37.876;2022-10-31T08:06:38;114.07;;;51.20;;
67841;SDS011;54642;59.126;37.876;2022-10-31T08:09:19;93.45;;;36.22;;
67841;SDS011;54642;59.126;37.876;2022-10-31T08:11:45;112.65;;;39.72;;
67841;SDS011;54642;59.126;37.876;2022-10-31T08:14:11;107.97;;;44.08;;
67841;SDS011;54642;59.126;37.876;2022-10-31T08:16:37;123.95;;;53.13;;
67841;SDS011;54642;59.126;37.876;2022-10-31T08:19:04;94.40;;;44.90;;
67841;SDS011;54642;59.126;37.876;2022-10-31T08:21:36;91.03;;;41.15;;
67841;SDS011;54642;59.126;37.876;2022-10-31T08:24:02;57.13;;;21.65;;
67841;SDS011;54642;59.126;37.876;2022-10-31T08:26:28;41.60;;;15.65;;
67841;SDS011;54642;59.126;37.876;2022-10-31T08:28:55;75.75;;;31.40;;
67841;SDS011;54642;59.126;37.876;2022-10-31T08:31:22;59.75;;;23.80;;
67841;SDS011;54642;59.126;37.876;2022-10-31T08:33:48;93.38;;;36.85;;
67841;SDS011;54642;59.126;37.876;2022-10-31T08:36:32;31.85;;;12.32;;
67841;SDS011;54642;59.126;37.876;2022-10-31T08:38:58;96.50;;;37.28;;
67841;SDS011;54642;59.126;37.876;2022-10-31T08:41:26;60.85;;;24.45;;
67841;SDS011;54642;59.126;37.876;2022-10-31T08:43:53;51.42;;;21.55;;
67841;SDS011;54642;59.126;37.876;2022-10-31T08:46:19;59.30;;;23.90;;
67841;SDS011;54642;59.126;37.876;2022-10-31T08:48:50;34.75;;;13.32;;
67841;SDS011;54642;59.126;37.876;2022-10-31T08:51:17;54.50;;;22.17;;
67841;SDS011;54642;59.126;37.876;2022-10-31T08:53:44;76.22;;;30.80;;
67841;SDS011;54642;59.126;37.876;2022-10-31T08:56:28;80.68;;;28.25;;
67841;SDS011;54642;59.126;37.876;2022-10-31T08:58:54;67.30;;;20.27;;
67841;SDS011;54642;59.126;37.876;2022-10-31T09:01:30;54.38;;;19.67;;
67841;SDS011;54642;59.126;37.876;2022-10-31T09:03:57;33.47;;;14.40;;
67841;SDS011;54642;59.126;37.876;2022-10-31T09:06:22;54.33;;;16.67;;
67841;SDS011;54642;59.126;37.876;2022-10-31T09:08:48;34.17;;;11.77;;
67841;SDS011;54642;59.126;37.876;2022-10-31T09:11:15;22.67;;;8.73;;
67841;SDS011;54642;59.126;37.876;2022-10-31T09:14:10;33.05;;;12.20;;
67841;SDS011;54642;59.126;37.876;2022-10-31T09:16:55;23.88;;;7.15;;
67841;SDS011;54642;59.126;37.876;2022-10-31T09:19:29;18.35;;;6.78;;
67841;SDS011;54642;59.126;37.876;2022-10-31T09:21:55;32.42;;;12.30;;
67841;SDS011;54642;59.126;37.876;2022-10-31T09:24:21;23.55;;;10.90;;
67841;SDS011;54642;59.126;37.876;2022-10-31T09:26:47;39.65;;;14.95;;
67841;SDS011;54642;59.126;37.876;2022-10-31T09:29:16;31.83;;;13.15;;
67841;SDS011;54642;59.126;37.876;2022-10-31T09:31:43;37.90;;;13.82;;
67841;SDS011;54642;59.126;37.876;2022-10-31T09:34:24;26.55;;;10.52;;
67841;SDS011;54642;59.126;37.876;2022-10-31T09:37:11;38.00;;;11.43;;
67841;SDS011;54642;59.126;37.876;2022-10-31T09:39:38;31.02;;;11.18;;
67841;SDS011;54642;59.126;37.876;2022-10-31T09:45:21;37.47;;;13.27;;
67841;SDS011;54642;59.126;37.876;2022-10-31T09:53:36;28.02;;;9.50;;
67841;SDS011;54642;59.126;37.876;2022-10-31T09:56:23;11.48;;;4.28;;
67841;SDS011;54642;59.126;37.876;2022-10-31T09:58:55;25.33;;;8.07;;
67841;SDS011;54642;59.126;37.876;2022-10-31T10:01:33;42.00;;;16.35;;
67841;SDS011;54642;59.126;37.876;2022-10-31T10:06:56;53.08;;;17.33;;
67841;SDS011;54642;59.126;37.876;2022-10-31T10:09:41;45.22;;;16.67;;
67841;SDS011;54642;59.126;37.876;2022-10-31T10:26:33;46.33;;;15.23;;
67841;SDS011;54642;59.126;37.876;2022-10-31T10:31:54;30.63;;;10.35;;
67841;SDS011;54642;59.126;37.876;2022-10-31T10:37:00;19.98;;;6.18;;
67841;SDS011;54642;59.126;37.876;2022-10-31T10:39:32;12.88;;;4.40;;
67841;SDS011;54642;59.126;37.876;2022-10-31T10:42:13;16.75;;;6.50;;
67841;SDS011;54642;59.126;37.876;2022-10-31T10:44:59;32.08;;;9.68;;
67841;SDS011;54642;59.126;37.876;2022-10-31T10:47:52;23.70;;;10.75;;
67841;SDS011;54642;59.126;37.876;2022-10-31T10:50:30;20.42;;;9.90;;
67841;SDS011;54642;59.126;37.876;2022-10-31T10:53:06;25.40;;;7.65;;
67841;SDS011;54642;59.126;37.876;2022-10-31T10:56:15;25.20;;;9.55;;
67841;SDS011;54642;59.126;37.876;2022-10-31T10:58:48;17.05;;;6.97;;
67841;SDS011;54642;59.126;37.876;2022-10-31T11:01:14;28.65;;;6.85;;
67841;SDS011;54642;59.126;37.876;2022-10-31T11:03:41;29.73;;;6.47;;
67841;SDS011;54642;59.126;37.876;2022-10-31T11:06:20;30.55;;;8.85;;
67841;SDS011;54642;59.126;37.876;2022-10-31T11:08:51;22.98;;;6.53;;
67841;SDS011;54642;59.126;37.876;2022-10-31T11:11:28;49.55;;;13.88;;
67841;SDS011;54642;59.126;37.876;2022-10-31T11:14:06;8.15;;;2.70;;
67841;SDS011;54642;59.126;37.876;2022-10-31T11:16:40;30.85;;;8.75;;
67841;SDS011;54642;59.126;37.876;2022-10-31T11:21:37;13.20;;;4.45;;
67841;SDS011;54642;59.126;37.876;2022-10-31T11:24:07;14.43;;;5.32;;
67841;SDS011;54642;59.126;37.876;2022-10-31T11:26:40;35.10;;;9.65;;
67841;SDS011;54642;59.126;37.876;2022-10-31T11:29:13;24.23;;;8.95;;
67841;SDS011;54642;59.126;37.876;2022-10-31T11:31:40;23.20;;;5.97;;
67841;SDS011;54642;59.126;37.876;2022-10-31T11:34:16;11.15;;;3.85;;
67841;SDS011;54642;59.126;37.876;2022-10-31T11:37:18;8.75;;;2.55;;
67841;SDS011;54642;59.126;37.876;2022-10-31T11:40:15;9.18;;;3.45;;
67841;SDS011;54642;59.126;37.876;2022-10-31T11:42:46;10.25;;;3.33;;
67841;SDS011;54642;59.126;37.876;2022-10-31T11:47:46;27.00;;;6.47;;
67841;SDS011;54642;59.126;37.876;2022-10-31T11:50:18;28.00;;;5.95;;
67841;SDS011;54642;59.126;37.876;2022-10-31T11:52:50;18.45;;;4.57;;
67841;SDS011;54642;59.126;37.876;2022-10-31T11:55:32;19.15;;;5.93;;
67841;SDS011;54642;59.126;37.876;2022-10-31T11:58:01;15.63;;;4.85;;
67841;SDS011;54642;59.126;37.876;2022-10-31T12:00:36;25.50;;;8.52;;
67841;SDS011;54642;59.126;37.876;2022-10-31T12:08:36;16.13;;;6.03;;
67841;SDS011;54642;59.126;37.876;2022-10-31T12:14:02;24.88;;;5.68;;
67841;SDS011;54642;59.126;37.876;2022-10-31T12:23:06;23.58;;;7.43;;
67841;SDS011;54642;59.126;37.876;2022-10-31T12:30:46;16.10;;;5.20;;
67841;SDS011;54642;59.126;37.876;2022-10-31T12:33:25;23.27;;;6.40;;
67841;SDS011;54642;59.126;37.876;2022-10-31T12:41:52;30.20;;;7.38;;
67841;SDS011;54642;59.126;37.876;2022-10-31T12:52:44;7.57;;;3.13;;
67841;SDS011;54642;59.126;37.876;2022-10-31T12:58:36;20.88;;;6.93;;
67841;SDS011;54642;59.126;37.876;2022-10-31T13:06:44;33.10;;;9.80;;
67841;SDS011;54642;59.126;37.876;2022-10-31T13:09:17;20.23;;;6.95;;
67841;SDS011;54642;59.126;37.876;2022-10-31T13:11:49;13.05;;;4.63;;
67841;SDS011;54642;59.126;37.876;2022-10-31T13:14:26;15.90;;;5.95;;
67841;SDS011;54642;59.126;37.876;2022-10-31T13:16:53;38.38;;;10.38;;
67841;SDS011;54642;59.126;37.876;2022-10-31T13:19:25;25.35;;;7.28;;
67841;SDS011;54642;59.126;37.876;2022-10-31T13:24:59;25.98;;;8.43;;
67841;SDS011;54642;59.126;37.876;2022-10-31T13:27:45;30.23;;;9.93;;
67841;SDS011;54642;59.126;37.876;2022-10-31T13:30:23;25.08;;;5.85;;
67841;SDS011;54642;59.126;37.876;2022-10-31T13:44:03;34.40;;;12.65;;
67841;SDS011;54642;59.126;37.876;2022-10-31T13:48:59;16.10;;;5.97;;
67841;SDS011;54642;59.126;37.876;2022-10-31T13:51:26;7.00;;;3.20;;
67841;SDS011;54642;59.126;37.876;2022-10-31T13:56:21;8.82;;;3.17;;
67841;SDS011;54642;59.126;37.876;2022-10-31T13:59:32;9.50;;;2.40;;
67841;SDS011;54642;59.126;37.876;2022-10-31T14:01:51;12.18;;;4.25;;
67841;SDS011;54642;59.126;37.876;2022-10-31T14:04:21;12.88;;;4.15;;
67841;SDS011;54642;59.126;37.876;2022-10-31T14:09:19;30.20;;;8.30;;
67841;SDS011;54642;59.126;37.876;2022-10-31T14:11:49;20.55;;;5.82;;
67841;SDS011;54642;59.126;37.876;2022-10-31T14:14:16;18.63;;;5.70;;
67841;SDS011;54642;59.126;37.876;2022-10-31T14:16:44;26.63;;;9.38;;
67841;SDS011;54642;59.126;37.876;2022-10-31T14:19:15;15.27;;;5.30;;
67841;SDS011;54642;59.126;37.876;2022-10-31T14:29:28;15.98;;;6.20;;
67841;SDS011;54642;59.126;37.876;2022-10-31T14:32:02;26.25;;;7.97;;
67841;SDS011;54642;59.126;37.876;2022-10-31T14:37:19;12.50;;;4.13;;
67841;SDS011;54642;59.126;37.876;2022-10-31T14:45:20;15.77;;;5.70;;
67841;SDS011;54642;59.126;37.876;2022-10-31T14:53:14;24.73;;;9.68;;
67841;SDS011;54642;59.126;37.876;2022-10-31T14:56:02;28.23;;;8.20;;
67841;SDS011;54642;59.126;37.876;2022-10-31T14:58:41;17.52;;;6.63;;
67841;SDS011;54642;59.126;37.876;2022-10-31T15:01:30;24.05;;;9.63;;
67841;SDS011;54642;59.126;37.876;2022-10-31T15:04:13;27.40;;;10.27;;
67841;SDS011;54642;59.126;37.876;2022-10-31T15:06:42;24.85;;;9.23;;
67841;SDS011;54642;59.126;37.876;2022-10-31T15:09:21;40.95;;;14.40;;
67841;SDS011;54642;59.126;37.876;2022-10-31T15:11:49;30.23;;;11.13;;
67841;SDS011;54642;59.126;37.876;2022-10-31T15:14:25;38.67;;;12.23;;
67841;SDS011;54642;59.126;37.876;2022-10-31T15:16:53;27.30;;;9.75;;
67841;SDS011;54642;59.126;37.876;2022-10-31T15:19:26;32.53;;;10.27;;
67841;SDS011;54642;59.126;37.876;2022-10-31T15:21:54;43.35;;;14.95;;
67841;SDS011;54642;59.126;37.876;2022-10-31T15:24:22;22.70;;;8.43;;
67841;SDS011;54642;59.126;37.876;2022-10-31T15:27:00;35.72;;;10.93;;
67841;SDS011;54642;59.126;37.876;2022-10-31T15:29:27;33.03;;;10.05;;
67841;SDS011;54642;59.126;37.876;2022-10-31T15:31:55;27.77;;;9.77;;
67841;SDS011;54642;59.126;37.876;2022-10-31T15:34:38;27.92;;;9.43;;
67841;SDS011;54642;59.126;37.876;2022-10-31T15:37:12;31.90;;;9.38;;
67841;SDS011;54642;59.126;37.876;2022-10-31T15:39:40;36.60;;;10.98;;
67841;SDS011;54642;59.126;37.876;2022-10-31T15:47:34;39.63;;;15.20;;
67841;SDS011;54642;59.126;37.876;2022-10-31T15:50:01;17.38;;;5.72;;
67841;SDS011;54642;59.126;37.876;2022-10-31T15:52:31;18.73;;;5.68;;
67841;SDS011;54642;59.126;37.876;2022-10-31T16:00:04;18.13;;;5.18;;
67841;SDS011;54642;59.126;37.876;2022-10-31T16:02:31;15.93;;;4.50;;
67841;SDS011;54642;59.126;37.876;2022-10-31T16:04:59;13.32;;;3.60;;
67841;SDS011;54642;59.126;37.876;2022-10-31T16:07:26;10.20;;;3.97;;
67841;SDS011;54642;59.126;37.876;2022-10-31T16:10:01;5.85;;;1.73;;
67841;SDS011;54642;59.126;37.876;2022-10-31T16:12:33;7.45;;;3.65;;
67841;SDS011;54642;59.126;37.876;2022-10-31T16:15:01;6.47;;;2.53;;
67841;SDS011;54642;59.126;37.876;2022-10-31T16:17:29;7.22;;;2.90;;
67841;SDS011;54642;59.126;37.876;2022-10-31T16:22:35;12.15;;;3.28;;
67841;SDS011;54642;59.126;37.876;2022-10-31T16:27:39;8.18;;;2.80;;
67841;SDS011;54642;59.126;37.876;2022-10-31T16:33:24;3.28;;;2.08;;
67841;SDS011;54642;59.126;37.876;2022-10-31T16:35:52;8.52;;;2.67;;
67841;SDS011;54642;59.126;37.876;2022-10-31T16:38:19;9.70;;;2.72;;
67841;SDS011;54642;59.126;37.876;2022-10-31T16:43:13;32.70;;;8.68;;
67841;SDS011;54642;59.126;37.876;2022-10-31T16:45:44;25.38;;;5.35;;
67841;SDS011;54642;59.126;37.876;2022-10-31T16:48:16;20.38;;;7.95;;
67841;SDS011;54642;59.126;37.876;2022-10-31T16:50:44;30.15;;;9.05;;
67841;SDS011;54642;59.126;37.876;2022-10-31T16:53:11;29.30;;;8.32;;
67841;SDS011;54642;59.126;37.876;2022-10-31T16:55:42;24.35;;;8.10;;
67841;SDS011;54642;59.126;37.876;2022-10-31T16:58:21;22.00;;;7.30;;
67841;SDS011;54642;59.126;37.876;2022-10-31T17:00:53;25.13;;;8.25;;
67841;SDS011;54642;59.126;37.876;2022-10-31T17:03:19;22.70;;;9.60;;
67841;SDS011;54642;59.126;37.876;2022-10-31T17:05:45;32.75;;;10.07;;
67841;SDS011;54642;59.126;37.876;2022-10-31T17:10:37;19.45;;;7.35;;
67841;SDS011;54642;59.126;37.876;2022-10-31T17:13:06;25.80;;;8.48;;
67841;SDS011;54642;59.126;37.876;2022-10-31T17:15:44;34.25;;;10.93;;
67841;SDS011;54642;59.126;37.876;2022-10-31T17:18:13;22.00;;;6.88;;
67841;SDS011;54642;59.126;37.876;2022-10-31T17:20:40;29.35;;;9.80;;
67841;SDS011;54642;59.126;37.876;2022-10-31T17:23:10;38.50;;;12.10;;
67841;SDS011;54642;59.126;37.876;2022-10-31T17:25:38;45.22;;;13.13;;
67841;SDS011;54642;59.126;37.876;2022-10-31T17:28:04;37.92;;;12.23;;
67841;SDS011;54642;59.126;37.876;2022-10-31T17:30:31;35.17;;;11.45;;
67841;SDS011;54642;59.126;37.876;2022-10-31T17:32:59;34.88;;;11.13;;
67841;SDS011;54642;59.126;37.876;2022-10-31T17:35:24;30.38;;;8.95;;
67841;SDS011;54642;59.126;37.876;2022-10-31T17:37:50;28.50;;;8.05;;
67841;SDS011;54642;59.126;37.876;2022-10-31T17:40:17;36.92;;;10.15;;
67841;SDS011;54642;59.126;37.876;2022-10-31T17:42:48;6.13;;;1.98;;
67841;SDS011;54642;59.126;37.876;2022-10-31T17:45:19;18.55;;;3.85;;
67841;SDS011;54642;59.126;37.876;2022-10-31T17:47:46;34.85;;;10.30;;
67841;SDS011;54642;59.126;37.876;2022-10-31T17:50:14;62.30;;;17.27;;
67841;SDS011;54642;59.126;37.876;2022-10-31T17:52:44;44.53;;;12.68;;
67841;SDS011;54642;59.126;37.876;2022-10-31T17:55:11;54.17;;;15.75;;
67841;SDS011;54642;59.126;37.876;2022-10-31T17:57:37;22.33;;;7.68;;
67841;SDS011;54642;59.126;37.876;2022-10-31T18:00:05;28.55;;;9.23;;
67841;SDS011;54642;59.126;37.876;2022-10-31T18:02:36;66.55;;;19.67;;
67841;SDS011;54642;59.126;37.876;2022-10-31T18:07:30;17.05;;;5.00;;
67841;SDS011;54642;59.126;37.876;2022-10-31T18:09:56;16.60;;;4.22;;
67841;SDS011;54642;59.126;37.876;2022-10-31T18:12:23;19.77;;;5.82;;
67841;SDS011;54642;59.126;37.876;2022-10-31T18:14:50;10.38;;;3.55;;
67841;SDS011;54642;59.126;37.876;2022-10-31T18:17:16;4.43;;;1.83;;
67841;SDS011;54642;59.126;37.876;2022-10-31T18:19:42;5.93;;;1.75;;